createdAt,value
2023-03-18T00:01:07.666Z,198.73
2023-03-18T00:03:38.561Z,70.80
2023-03-18T00:06:08.619Z,185.10
2023-03-18T00:08:37.721Z,26.27
2023-03-18T00:11:06.268Z,73.80
2023-03-18T00:13:34.810Z,282.27
2023-03-18T00:16:04.354Z,220.73
2023-03-18T00:18:32.953Z,160.23
2023-03-18T00:21:03.780Z,332.07
2023-03-18T00:23:33.128Z,93.00
2023-03-18T00:26:02.499Z,154.07
2023-03-18T00:28:31.360Z,99.07
2023-03-18T00:31:05.359Z,186.60
2023-03-18T00:33:33.702Z,272.20
2023-03-18T00:36:04.091Z,63.37
2023-03-18T00:38:32.364Z,85.57
2023-03-18T00:41:10.999Z,141.00
2023-03-18T00:43:46.163Z,138.73
2023-03-18T00:46:16.378Z,86.50
2023-03-18T00:48:45.023Z,75.07
2023-03-18T00:51:17.182Z,77.13
2023-03-18T00:53:47.439Z,77.43
2023-03-18T00:56:16.506Z,66.50
2023-03-18T00:58:45.287Z,66.10
2023-03-18T01:01:13.791Z,66.50
2023-03-18T01:03:43.267Z,257.13
2023-03-18T01:06:12.616Z,43.17
2023-03-18T01:08:42.755Z,111.27
2023-03-18T01:11:12.168Z,45.87
2023-03-18T01:13:40.817Z,20.43
2023-03-18T01:16:10.110Z,52.63
2023-03-18T01:18:38.788Z,82.87
2023-03-18T01:21:07.129Z,63.27
2023-03-18T01:23:35.356Z,164.73
2023-03-18T01:26:05.077Z,49.53
2023-03-18T01:28:33.631Z,62.33
2023-03-18T01:31:01.900Z,390.50
2023-03-18T01:33:30.293Z,80.97
2023-03-18T01:35:59.891Z,127.57
2023-03-18T01:38:30.197Z,107.63
2023-03-18T01:40:58.630Z,202.20
2023-03-18T01:43:30.588Z,26.73
2023-03-18T01:46:01.476Z,127.13
2023-03-18T01:48:31.677Z,194.70
2023-03-18T01:51:04.190Z,54.00
2023-03-18T01:53:36.593Z,34.63
2023-03-18T01:56:05.163Z,36.70
2023-03-18T01:58:37.705Z,115.63
2023-03-18T02:01:11.605Z,14.00
2023-03-18T02:03:42.913Z,51.57
2023-03-18T02:06:12.427Z,97.53
2023-03-18T02:08:41.314Z,108.07
2023-03-18T02:11:11.761Z,58.27
2023-03-18T02:13:43.532Z,45.17
2023-03-18T02:16:15.846Z,60.47
2023-03-18T02:18:48.060Z,121.27
2023-03-18T02:21:29.616Z,41.80
2023-03-18T02:24:11.837Z,17.77
2023-03-18T02:26:46.497Z,48.40
2023-03-18T02:29:18.329Z,379.57
2023-03-18T02:31:46.919Z,46.53
2023-03-18T02:34:15.578Z,30.60
2023-03-18T02:36:43.708Z,63.93
2023-03-18T02:39:15.056Z,25.77
2023-03-18T02:41:43.692Z,71.00
2023-03-18T02:44:12.420Z,139.33
2023-03-18T02:46:54.018Z,136.03
2023-03-18T02:49:23.490Z,197.80
2023-03-18T02:51:51.939Z,128.70
2023-03-18T02:54:21.698Z,16.73
2023-03-18T02:56:50.170Z,66.80
2023-03-18T02:59:18.920Z,86.03
2023-03-18T03:01:49.865Z,27.93
2023-03-18T03:04:18.376Z,28.97
2023-03-18T03:06:47.154Z,47.40
2023-03-18T03:09:17.351Z,208.50
2023-03-18T03:11:47.485Z,45.50
2023-03-18T03:14:17.353Z,30.93
2023-03-18T03:16:45.427Z,39.73
2023-03-18T03:19:14.723Z,160.37
2023-03-18T03:21:42.682Z,160.00
2023-03-18T03:24:10.997Z,168.60
2023-03-18T03:26:39.334Z,91.17
2023-03-18T03:29:07.842Z,95.70
2023-03-18T03:31:36.835Z,67.77
2023-03-18T03:34:05.105Z,34.00
2023-03-18T03:36:34.523Z,138.93
2023-03-18T03:39:02.472Z,149.87
2023-03-18T03:41:30.476Z,140.37
2023-03-18T03:43:58.592Z,40.00
2023-03-18T03:46:26.559Z,146.67
2023-03-18T03:48:54.867Z,37.33
2023-03-18T03:51:22.862Z,93.43
2023-03-18T03:53:52.175Z,66.13
2023-03-18T03:56:20.144Z,54.13
2023-03-18T03:58:48.072Z,24.70
2023-03-18T04:01:16.067Z,120.20
2023-03-18T04:03:44.467Z,64.50
2023-03-18T04:06:12.646Z,53.37
2023-03-18T04:08:41.522Z,31.93
2023-03-18T04:11:11.120Z,57.60
2023-03-18T04:13:39.062Z,51.90
2023-03-18T04:16:07.793Z,34.47
2023-03-18T04:18:35.765Z,20.87
2023-03-18T04:21:03.690Z,80.83
2023-03-18T04:23:33.191Z,25.90
2023-03-18T04:26:01.527Z,57.13
2023-03-18T04:28:30.862Z,34.17
2023-03-18T04:30:58.793Z,68.83
2023-03-18T04:33:27.890Z,69.17
2023-03-18T04:35:55.850Z,27.43
2023-03-18T04:38:23.836Z,48.60
2023-03-18T04:40:52.631Z,100.27
2023-03-18T04:43:21.163Z,17.93
2023-03-18T04:45:50.506Z,28.60
2023-03-18T04:48:18.481Z,49.90
2023-03-18T04:50:46.691Z,36.53
2023-03-18T04:53:14.722Z,60.63
2023-03-18T04:55:43.529Z,40.00
2023-03-18T04:58:12.283Z,37.70
2023-03-18T05:00:40.301Z,28.23
2023-03-18T05:03:10.543Z,85.90
2023-03-18T05:05:38.890Z,409.13
2023-03-18T05:08:07.903Z,47.50
2023-03-18T05:10:36.195Z,40.80
2023-03-18T05:13:04.668Z,52.20
2023-03-18T05:15:32.884Z,25.20
2023-03-18T05:18:01.545Z,31.37
2023-03-18T05:20:30.870Z,47.40
2023-03-18T05:22:58.899Z,43.77
2023-03-18T05:25:27.077Z,186.60
2023-03-18T05:27:55.449Z,23.70
2023-03-18T05:30:23.377Z,46.73
2023-03-18T05:32:51.422Z,57.23
2023-03-18T05:35:19.510Z,184.50
2023-03-18T05:37:48.984Z,81.83
2023-03-18T05:40:17.060Z,78.53
2023-03-18T05:42:55.704Z,51.27
2023-03-18T05:45:24.341Z,79.40
2023-03-18T05:47:52.908Z,60.83
2023-03-18T05:50:30.026Z,70.53
2023-03-18T05:52:59.439Z,112.90
2023-03-18T05:55:28.307Z,81.70
2023-03-18T05:57:56.466Z,54.93
2023-03-18T06:00:25.213Z,60.13
2023-03-18T06:02:54.001Z,105.97
2023-03-18T06:05:22.592Z,30.43
2023-03-18T06:07:50.860Z,67.90
2023-03-18T06:10:20.501Z,93.43
2023-03-18T06:12:49.341Z,52.33
2023-03-18T06:15:17.337Z,42.73
2023-03-18T06:17:45.623Z,31.47
2023-03-18T06:20:14.696Z,126.37
2023-03-18T06:22:43.782Z,35.67
2023-03-18T06:25:12.199Z,27.27
2023-03-18T06:27:42.064Z,87.13
2023-03-18T06:30:11.492Z,27.60
2023-03-18T06:32:40.460Z,31.47
2023-03-18T06:35:10.514Z,59.93
2023-03-18T06:37:39.126Z,50.33
2023-03-18T06:40:09.230Z,55.70
2023-03-18T06:42:37.605Z,152.47
2023-03-18T06:45:08.432Z,104.10
2023-03-18T06:47:36.384Z,30.53
2023-03-18T06:50:04.600Z,198.77
2023-03-18T06:52:32.894Z,309.47
2023-03-18T06:55:01.120Z,90.10
2023-03-18T06:57:29.074Z,459.83
2023-03-18T06:59:57.255Z,170.73
2023-03-18T07:02:27.368Z,110.27
2023-03-18T07:04:55.330Z,115.37
2023-03-18T07:07:24.655Z,216.47
2023-03-18T07:09:52.640Z,62.33
2023-03-18T07:12:20.575Z,106.57
2023-03-18T07:14:48.777Z,184.03
2023-03-18T07:17:16.900Z,75.97
2023-03-18T07:19:46.977Z,74.07
2023-03-18T07:22:15.776Z,195.07
2023-03-18T07:24:44.141Z,114.83
2023-03-18T07:27:13.261Z,214.50
2023-03-18T07:29:41.398Z,330.77
2023-03-18T07:32:09.687Z,458.60
2023-03-18T07:34:37.910Z,480.17
2023-03-18T07:37:07.319Z,323.03
2023-03-18T07:39:35.504Z,316.97
2023-03-18T07:42:03.461Z,324.73
2023-03-18T07:44:31.545Z,312.00
2023-03-18T07:46:59.576Z,476.23
2023-03-18T07:49:27.945Z,346.10
2023-03-18T07:51:55.901Z,532.37
2023-03-18T07:54:25.735Z,568.60
2023-03-18T07:56:53.823Z,684.27
2023-03-18T07:59:21.903Z,510.43
2023-03-18T08:01:50.212Z,563.90
2023-03-18T08:04:19.385Z,691.53
2023-03-18T08:06:47.522Z,504.03
2023-03-18T08:09:15.931Z,522.17
2023-03-18T08:11:45.216Z,570.17
2023-03-18T08:14:13.862Z,553.17
2023-03-18T08:16:41.979Z,678.90
2023-03-18T08:19:09.968Z,474.47
2023-03-18T08:21:37.968Z,548.10
2023-03-18T08:24:06.480Z,430.85
2023-03-18T08:26:34.452Z,741.03
2023-03-18T08:29:04.088Z,401.33
2023-03-18T08:31:32.046Z,570.03
2023-03-18T08:34:00.810Z,529.47
2023-03-18T08:36:28.791Z,395.37
2023-03-18T08:38:56.904Z,536.20
2023-03-18T08:41:26.101Z,482.27
2023-03-18T08:43:55.504Z,513.73
2023-03-18T08:46:24.939Z,498.57
2023-03-18T08:48:54.370Z,577.97
2023-03-18T08:51:23.251Z,452.27
2023-03-18T08:53:51.243Z,608.57
2023-03-18T08:56:19.396Z,474.70
2023-03-18T08:58:48.279Z,656.83
2023-03-18T09:01:16.751Z,693.30
2023-03-18T09:03:47.088Z,417.50
2023-03-18T09:06:15.272Z,653.87
2023-03-18T09:08:43.819Z,712.00
2023-03-18T09:11:13.630Z,783.13
2023-03-18T09:13:41.923Z,595.57
2023-03-18T09:16:10.717Z,537.20
2023-03-18T09:18:39.591Z,587.13
2023-03-18T09:21:09.058Z,612.27
2023-03-18T09:23:37.126Z,601.40
2023-03-18T09:26:05.485Z,448.73
2023-03-18T09:28:33.420Z,281.37
2023-03-18T09:31:01.720Z,586.17
2023-03-18T09:33:29.893Z,436.07
2023-03-18T09:35:57.939Z,424.02
2023-03-18T09:38:27.730Z,576.77
2023-03-18T09:41:08.621Z,569.38
2023-03-18T09:43:53.924Z,525.85
2023-03-18T09:46:33.416Z,614.08
2023-03-18T09:49:12.940Z,551.95
2023-03-18T09:51:49.497Z,660.33
2023-03-18T09:54:24.746Z,614.72
2023-03-18T09:56:54.477Z,651.80
2023-03-18T09:59:25.465Z,727.20
2023-03-18T10:01:56.487Z,654.90
2023-03-18T10:04:27.882Z,750.25
2023-03-18T10:07:00.451Z,732.10
2023-03-18T10:09:32.238Z,710.92
2023-03-18T10:12:08.392Z,671.70
2023-03-18T10:14:42.473Z,632.85
2023-03-18T10:17:18.860Z,374.05
2023-03-18T10:19:51.862Z,591.63
2023-03-18T10:23:01.941Z,756.75
2023-03-18T10:25:37.279Z,559.83
2023-03-18T10:28:37.782Z,787.30
2023-03-18T10:31:21.115Z,389.85
2023-03-18T10:33:57.894Z,717.55
2023-03-18T10:36:31.200Z,813.92
2023-03-18T10:39:01.163Z,560.65
2023-03-18T10:41:34.696Z,631.63
2023-03-18T10:44:05.573Z,720.05
2023-03-18T10:46:35.581Z,700.38
2023-03-18T10:49:10.444Z,569.95
2023-03-18T10:51:45.374Z,593.65
2023-03-18T10:54:19.145Z,893.63
2023-03-18T10:56:48.824Z,823.47
2023-03-18T10:59:18.531Z,701.38
2023-03-18T11:01:49.838Z,878.53
2023-03-18T11:04:21.569Z,910.85
2023-03-18T11:06:53.192Z,926.28
2023-03-18T11:09:23.604Z,709.85
2023-03-18T11:11:58.695Z,850.40
2023-03-18T11:14:30.928Z,986.72
2023-03-18T11:17:00.716Z,805.55
2023-03-18T11:19:32.299Z,987.30
2023-03-18T11:22:20.382Z,919.20
2023-03-18T11:25:02.001Z,733.72
2023-03-18T11:27:38.424Z,847.20
2023-03-18T11:30:21.439Z,946.03
2023-03-18T11:33:04.068Z,976.30
2023-03-18T11:35:38.105Z,872.90
2023-03-18T11:38:07.339Z,712.67
2023-03-18T11:40:35.437Z,749.08
2023-03-18T11:43:17.328Z,865.47
2023-03-18T11:45:50.178Z,870.47
2023-03-18T11:48:24.981Z,917.80
2023-03-18T11:51:07.006Z,786.00
2023-03-18T11:53:46.846Z,877.80
2023-03-18T11:56:20.708Z,890.28
2023-03-18T11:59:31.798Z,841.42
2023-03-18T12:02:13.883Z,936.55
2023-03-18T12:04:56.331Z,870.15
2023-03-18T12:07:44.772Z,999.90
2023-03-18T12:10:24.074Z,901.53
2023-03-18T12:13:19.688Z,879.10
2023-03-18T12:15:55.306Z,999.90
2023-03-18T12:18:42.864Z,999.90
2023-03-18T12:21:37.525Z,999.90
2023-03-18T12:24:19.037Z,987.40
2023-03-18T12:26:54.623Z,999.90
2023-03-18T12:30:04.525Z,970.05
2023-03-18T12:32:39.020Z,999.90
2023-03-18T12:35:29.463Z,999.90
2023-03-18T12:38:14.395Z,999.90
2023-03-18T12:40:55.615Z,935.15
2023-03-18T12:43:38.867Z,999.90
2023-03-18T12:46:23.297Z,977.97
2023-03-18T12:48:56.769Z,857.40
2023-03-18T12:51:29.457Z,835.13
2023-03-18T12:54:04.172Z,893.38
2023-03-18T12:56:32.760Z,841.33
2023-03-18T12:59:09.371Z,712.22
2023-03-18T13:01:41.982Z,916.72
2023-03-18T13:04:15.860Z,953.17
2023-03-18T13:06:49.438Z,999.90
2023-03-18T13:09:26.553Z,999.90
2023-03-18T13:12:04.072Z,999.90
2023-03-18T13:14:44.830Z,999.90
2023-03-18T13:17:16.617Z,999.90
2023-03-18T13:19:46.389Z,999.90
2023-03-18T13:22:38.247Z,960.00
2023-03-18T13:25:17.884Z,999.90
2023-03-18T13:27:54.872Z,934.05
2023-03-18T13:30:30.748Z,999.90
2023-03-18T13:33:24.102Z,972.78
2023-03-18T13:36:18.296Z,999.90
2023-03-18T13:39:01.784Z,999.90
2023-03-18T13:41:54.986Z,899.35
2023-03-18T13:44:31.527Z,999.90
2023-03-18T13:47:03.931Z,999.90
2023-03-18T13:49:34.059Z,990.08
2023-03-18T13:52:05.322Z,952.80
2023-03-18T13:54:36.919Z,978.78
2023-03-18T13:57:33.611Z,866.42
2023-03-18T14:00:28.537Z,991.92
2023-03-18T14:03:29.796Z,972.45
2023-03-18T14:06:28.280Z,911.70
2023-03-18T14:08:57.738Z,999.90
2023-03-18T14:11:46.899Z,999.90
2023-03-18T14:15:09.307Z,918.55
2023-03-18T14:17:48.735Z,996.13
2023-03-18T14:20:29.761Z,865.67
2023-03-18T14:23:19.019Z,998.17
2023-03-18T14:25:54.457Z,999.90
2023-03-18T14:28:26.584Z,914.63
2023-03-18T14:31:20.540Z,994.63
2023-03-18T14:34:26.651Z,905.08
2023-03-18T14:37:30.750Z,956.85
2023-03-18T14:40:07.200Z,963.65
2023-03-18T14:42:53.738Z,909.63
2023-03-18T14:45:27.444Z,943.05
2023-03-18T14:47:56.796Z,902.05
2023-03-18T14:50:40.440Z,979.95
2023-03-18T14:53:17.388Z,997.88
2023-03-18T14:55:45.774Z,925.33
2023-03-18T14:58:18.312Z,936.03
2023-03-18T15:00:47.907Z,999.90
2023-03-18T15:03:21.765Z,867.65
2023-03-18T15:05:50.430Z,858.45
2023-03-18T15:08:21.449Z,999.90
2023-03-18T15:10:51.665Z,983.20
2023-03-18T15:13:22.807Z,999.17
2023-03-18T15:15:54.734Z,947.25
2023-03-18T15:18:26.534Z,877.78
2023-03-18T15:20:58.447Z,875.17
2023-03-18T15:23:31.226Z,934.45
2023-03-18T15:25:59.305Z,978.38
2023-03-18T15:28:30.080Z,920.17
2023-03-18T15:30:59.782Z,859.15
2023-03-18T15:33:32.147Z,999.90
2023-03-18T15:36:05.866Z,918.20
2023-03-18T15:38:34.772Z,954.63
2023-03-18T15:41:05.531Z,952.67
2023-03-18T15:43:43.896Z,999.90
2023-03-18T15:46:19.120Z,964.75
2023-03-18T15:48:54.676Z,999.90
2023-03-18T15:51:29.875Z,999.90
2023-03-18T15:53:59.785Z,980.25
2023-03-18T15:56:31.419Z,924.88
2023-03-18T15:59:07.009Z,820.45
2023-03-18T16:01:36.189Z,765.10
2023-03-18T16:04:06.019Z,808.75
2023-03-18T16:06:35.067Z,698.25
2023-03-18T16:09:12.773Z,777.15
2023-03-18T16:11:41.292Z,749.72
2023-03-18T16:14:15.138Z,715.97
2023-03-18T16:16:43.298Z,715.03
2023-03-18T16:19:16.728Z,722.75
2023-03-18T16:21:45.626Z,610.38
2023-03-18T16:24:13.588Z,733.40
2023-03-18T16:26:42.386Z,676.22
2023-03-18T16:29:16.787Z,894.15
2023-03-18T16:31:45.466Z,840.38
2023-03-18T16:34:17.369Z,465.63
2023-03-18T16:36:45.981Z,591.72
2023-03-18T16:39:18.039Z,781.17
2023-03-18T16:41:46.482Z,687.28
2023-03-18T16:44:17.867Z,435.48
2023-03-18T16:46:48.016Z,800.97
2023-03-18T16:49:22.351Z,751.65
2023-03-18T16:51:51.597Z,764.55
2023-03-18T16:54:21.591Z,844.53
2023-03-18T16:56:51.376Z,656.25
2023-03-18T16:59:22.211Z,730.75
2023-03-18T17:01:50.697Z,673.20
2023-03-18T17:04:22.637Z,689.75
2023-03-18T17:06:51.417Z,829.40
2023-03-18T17:09:20.516Z,797.28
2023-03-18T17:11:50.332Z,741.83
2023-03-18T17:14:30.949Z,672.33
2023-03-18T17:17:02.237Z,336.50
2023-03-18T17:19:31.173Z,826.35
2023-03-18T17:21:59.240Z,999.90
2023-03-18T17:24:27.244Z,952.80
2023-03-18T17:26:55.530Z,871.03
2023-03-18T17:29:27.498Z,765.75
2023-03-18T17:31:56.590Z,689.15
2023-03-18T17:34:24.891Z,685.83
2023-03-18T17:36:52.841Z,712.75
2023-03-18T17:39:21.023Z,747.17
2023-03-18T17:41:49.214Z,860.80
2023-03-18T17:44:29.188Z,416.55
2023-03-18T17:46:58.553Z,655.20
2023-03-18T17:49:28.514Z,345.05
2023-03-18T17:51:57.475Z,604.60
2023-03-18T17:54:27.261Z,727.00
2023-03-18T17:56:56.160Z,591.72
2023-03-18T17:59:25.708Z,626.60
2023-03-18T18:01:53.733Z,716.17
2023-03-18T18:04:24.752Z,362.98
2023-03-18T18:06:53.439Z,334.57
2023-03-18T18:09:21.784Z,336.27
2023-03-18T18:11:50.954Z,191.40
2023-03-18T18:14:22.285Z,641.30
2023-03-18T18:16:53.605Z,847.03
2023-03-18T18:19:22.809Z,543.33
2023-03-18T18:21:51.533Z,278.05
2023-03-18T18:24:23.452Z,361.80
2023-03-18T18:26:51.785Z,651.43
2023-03-18T18:29:22.260Z,384.93
2023-03-18T18:31:52.624Z,733.23
2023-03-18T18:34:21.401Z,491.23
2023-03-18T18:36:50.713Z,357.50
2023-03-18T18:39:19.209Z,703.23
2023-03-18T18:41:47.151Z,738.97
2023-03-18T18:44:15.287Z,387.43
2023-03-18T18:46:43.272Z,255.83
2023-03-18T18:49:22.054Z,428.37
2023-03-18T18:51:53.170Z,270.47
2023-03-18T18:54:21.243Z,838.87
2023-03-18T18:56:49.572Z,621.37
2023-03-18T18:59:23.429Z,253.57
2023-03-18T19:01:51.921Z,417.63
2023-03-18T19:04:22.795Z,302.00
2023-03-18T19:06:52.335Z,437.10
2023-03-18T19:09:23.749Z,429.37
2023-03-18T19:11:53.304Z,251.57
2023-03-18T19:14:24.650Z,190.57
2023-03-18T19:16:53.656Z,169.27
2023-03-18T19:19:27.118Z,245.37
2023-03-18T19:21:55.075Z,422.77
2023-03-18T19:24:28.301Z,280.23
2023-03-18T19:26:57.355Z,396.30
2023-03-18T19:29:25.712Z,283.10
2023-03-18T19:31:54.495Z,507.73
2023-03-18T19:34:24.420Z,132.60
2023-03-18T19:36:55.933Z,222.67
2023-03-18T19:39:24.770Z,300.27
2023-03-18T19:41:52.699Z,123.83
2023-03-18T19:44:22.954Z,287.67
2023-03-18T19:46:53.434Z,317.00
2023-03-18T19:49:24.725Z,102.33
2023-03-18T19:51:53.583Z,535.50
2023-03-18T19:54:27.129Z,178.03
2023-03-18T19:56:55.963Z,112.27
2023-03-18T19:59:25.438Z,75.37
2023-03-18T20:01:53.805Z,158.90
2023-03-18T20:04:27.615Z,381.83
2023-03-18T20:06:56.003Z,151.20
2023-03-18T20:09:25.061Z,303.83
2023-03-18T20:12:05.661Z,326.40
2023-03-18T20:14:38.128Z,135.60
2023-03-18T20:17:34.274Z,230.63
2023-03-18T20:20:03.891Z,116.23
2023-03-18T20:22:34.331Z,150.30
2023-03-18T20:25:03.107Z,144.27
2023-03-18T20:27:31.539Z,101.80
2023-03-18T20:29:59.821Z,254.23
2023-03-18T20:32:27.887Z,123.77
2023-03-18T20:34:55.851Z,93.07
2023-03-18T20:37:31.025Z,81.73
2023-03-18T20:39:59.087Z,25.67
2023-03-18T20:42:27.244Z,71.27
2023-03-18T20:44:55.378Z,105.93
2023-03-18T20:47:23.354Z,31.70
2023-03-18T20:49:51.481Z,69.30
2023-03-18T20:52:27.376Z,250.80
2023-03-18T20:54:56.782Z,87.73
2023-03-18T20:57:25.278Z,148.30
2023-03-18T20:59:53.264Z,203.20
2023-03-18T21:02:32.768Z,55.40
2023-03-18T21:05:01.928Z,81.03
2023-03-18T21:07:31.922Z,100.33
2023-03-18T21:09:59.978Z,34.13
2023-03-18T21:12:28.091Z,152.90
2023-03-18T21:14:56.036Z,45.70
2023-03-18T21:17:25.906Z,28.73
2023-03-18T21:20:00.656Z,34.97
2023-03-18T21:22:34.560Z,24.50
2023-03-18T21:25:02.950Z,22.83
2023-03-18T21:27:31.031Z,156.47
2023-03-18T21:29:59.198Z,54.03
2023-03-18T21:32:29.803Z,109.10
2023-03-18T21:34:58.152Z,111.37
2023-03-18T21:37:27.844Z,46.93
2023-03-18T21:39:57.184Z,128.23
2023-03-18T21:42:27.232Z,132.77
2023-03-18T21:44:56.983Z,123.53
2023-03-18T21:47:27.074Z,103.23
2023-03-18T21:49:55.100Z,101.77
2023-03-18T21:52:30.243Z,96.33
2023-03-18T21:55:00.720Z,75.50
2023-03-18T21:57:30.099Z,226.83
2023-03-18T21:59:58.057Z,177.03
2023-03-18T22:02:30.985Z,271.50
2023-03-18T22:05:01.009Z,27.10
2023-03-18T22:07:30.813Z,85.47
2023-03-18T22:10:01.157Z,24.17
2023-03-18T22:12:31.098Z,61.43
2023-03-18T22:14:59.984Z,142.63
2023-03-18T22:17:30.064Z,158.80
2023-03-18T22:19:59.660Z,112.40
2023-03-18T22:22:37.696Z,71.90
2023-03-18T22:25:08.426Z,50.67
2023-03-18T22:27:36.418Z,67.47
2023-03-18T22:30:04.737Z,84.13
2023-03-18T22:32:40.312Z,109.20
2023-03-18T22:35:15.152Z,69.53
2023-03-18T22:37:43.312Z,145.97
2023-03-18T22:40:17.575Z,93.70
2023-03-18T22:42:46.660Z,135.43
2023-03-18T22:45:23.252Z,267.07
2023-03-18T22:47:51.592Z,165.37
2023-03-18T22:50:20.147Z,115.87
2023-03-18T22:52:50.000Z,26.13
2023-03-18T22:55:22.178Z,72.77
2023-03-18T22:57:51.078Z,60.40
2023-03-18T23:00:25.757Z,20.60
2023-03-18T23:02:54.458Z,73.43
2023-03-18T23:05:23.777Z,139.27
2023-03-18T23:07:52.863Z,134.87
2023-03-18T23:10:22.442Z,29.40
2023-03-18T23:12:50.680Z,126.00
2023-03-18T23:15:20.735Z,58.53
2023-03-18T23:17:49.501Z,20.63
2023-03-18T23:20:19.616Z,114.70
2023-03-18T23:22:47.622Z,143.37
2023-03-18T23:25:17.951Z,120.10
2023-03-18T23:27:47.320Z,85.97
2023-03-18T23:30:15.684Z,226.10
2023-03-18T23:32:43.690Z,120.47
2023-03-18T23:35:11.936Z,148.27
2023-03-18T23:37:39.899Z,175.30
2023-03-18T23:40:08.756Z,87.33
2023-03-18T23:42:36.836Z,101.63
2023-03-18T23:45:07.797Z,459.23
2023-03-18T23:47:35.771Z,136.17
2023-03-18T23:50:04.093Z,39.17
2023-03-18T23:52:32.044Z,62.93
2023-03-18T23:55:00.424Z,180.80
2023-03-18T23:57:29.007Z,67.67
2023-03-18T23:59:56.974Z,118.87
